createdAt,value
2019-05-18T00:00:19.367Z,22.60
2019-05-18T00:02:48.637Z,22.45
2019-05-18T00:05:17.787Z,22.45
2019-05-18T00:07:46.831Z,22.22
2019-05-18T00:10:16.054Z,22.95
2019-05-18T00:12:45.057Z,23.32
2019-05-18T00:15:14.165Z,21.62
2019-05-18T00:17:43.166Z,21.20
2019-05-18T00:20:12.845Z,22.70
2019-05-18T00:22:41.889Z,22.15
2019-05-18T00:25:11.425Z,21.70
2019-05-18T00:27:40.477Z,22.80
2019-05-18T00:30:10.295Z,22.32
2019-05-18T00:32:39.634Z,21.50
2019-05-18T00:35:08.950Z,20.95
2019-05-18T00:37:37.942Z,22.13
2019-05-18T00:40:10.173Z,21.20
2019-05-18T00:42:39.515Z,20.72
2019-05-18T00:45:09.322Z,21.97
2019-05-18T00:47:41.962Z,21.70
2019-05-18T00:50:09.307Z,21.62
2019-05-18T00:52:38.457Z,21.97
2019-05-18T00:55:08.545Z,22.42
2019-05-18T00:57:37.570Z,21.17
2019-05-18T01:00:09.439Z,21.75
2019-05-18T01:02:38.479Z,21.35
2019-05-18T01:05:08.347Z,23.05
2019-05-18T01:07:37.762Z,23.57
2019-05-18T01:10:08.177Z,23.70
2019-05-18T01:12:37.177Z,23.83
2019-05-18T01:15:07.391Z,23.15
2019-05-18T01:17:36.478Z,22.80
2019-05-18T01:20:08.914Z,23.12
2019-05-18T01:22:37.887Z,22.50
2019-05-18T01:25:07.385Z,22.75
2019-05-18T01:27:36.531Z,23.75
2019-05-18T01:30:07.804Z,23.12
2019-05-18T01:32:37.123Z,22.60
2019-05-18T01:35:08.556Z,22.85
2019-05-18T01:37:37.855Z,25.68
2019-05-18T01:40:08.379Z,23.83
2019-05-18T01:42:37.706Z,22.37
2019-05-18T01:45:16.910Z,23.22
2019-05-18T01:47:39.661Z,24.70
2019-05-18T01:50:09.481Z,23.95
2019-05-18T01:52:38.537Z,24.00
2019-05-18T01:55:07.913Z,23.30
2019-05-18T01:57:37.034Z,22.90
2019-05-18T02:00:07.105Z,22.15
2019-05-18T02:02:36.107Z,22.60
2019-05-18T02:05:06.905Z,24.15
2019-05-18T02:07:35.880Z,23.83
2019-05-18T02:10:06.743Z,21.70
2019-05-18T02:12:35.782Z,22.77
2019-05-18T02:15:06.156Z,23.20
2019-05-18T02:17:35.538Z,22.65
2019-05-18T02:20:05.817Z,23.22
2019-05-18T02:22:34.820Z,23.47
2019-05-18T02:25:09.299Z,22.80
2019-05-18T02:27:38.286Z,22.75
2019-05-18T02:30:08.388Z,23.83
2019-05-18T02:32:37.413Z,23.73
2019-05-18T02:35:06.976Z,23.12
2019-05-18T02:37:36.370Z,23.75
2019-05-18T02:40:09.090Z,23.40
2019-05-18T02:42:38.211Z,22.73
2019-05-18T02:45:10.279Z,23.27
2019-05-18T02:47:39.238Z,22.98
2019-05-18T02:50:10.614Z,23.40
2019-05-18T02:52:39.687Z,23.05
2019-05-18T02:55:08.968Z,22.80
2019-05-18T02:57:38.107Z,23.22
2019-05-18T03:00:11.196Z,21.33
2019-05-18T03:02:40.317Z,21.82
2019-05-18T03:05:09.642Z,22.22
2019-05-18T03:07:38.672Z,21.57
2019-05-18T03:10:08.410Z,21.87
2019-05-18T03:12:37.518Z,21.95
2019-05-18T03:15:07.605Z,22.25
2019-05-18T03:17:36.803Z,23.35
2019-05-18T03:20:08.104Z,22.87
2019-05-18T03:22:37.245Z,22.45
2019-05-18T03:25:08.074Z,23.30
2019-05-18T03:27:37.196Z,22.07
2019-05-18T03:30:07.714Z,21.12
2019-05-18T03:32:36.833Z,21.82
2019-05-18T03:35:06.101Z,21.00
2019-05-18T03:37:35.180Z,21.07
2019-05-18T03:40:05.408Z,21.15
2019-05-18T03:42:34.653Z,22.10
2019-05-18T03:45:03.864Z,22.48
2019-05-18T03:47:32.982Z,21.12
2019-05-18T03:50:02.031Z,20.82
2019-05-18T03:52:31.408Z,20.97
2019-05-18T03:55:00.813Z,20.45
2019-05-18T03:57:29.863Z,20.17
2019-05-18T03:59:58.930Z,20.60
2019-05-18T04:02:27.904Z,21.50
2019-05-18T04:04:57.206Z,21.93
2019-05-18T04:07:26.595Z,24.55
2019-05-18T04:09:55.585Z,26.52
2019-05-18T04:12:24.639Z,25.40
2019-05-18T04:14:53.753Z,24.05
2019-05-18T04:17:22.762Z,24.72
2019-05-18T04:19:51.735Z,23.92
2019-05-18T04:22:20.771Z,23.07
2019-05-18T04:24:49.771Z,23.27
2019-05-18T04:27:19.080Z,22.13
2019-05-18T04:29:48.478Z,22.58
2019-05-18T04:32:17.530Z,21.82
2019-05-18T04:34:46.572Z,21.95
2019-05-18T04:37:15.634Z,21.45
2019-05-18T04:39:44.668Z,23.60
2019-05-18T04:42:16.381Z,23.50
2019-05-18T04:44:45.347Z,24.05
2019-05-18T04:47:14.325Z,22.82
2019-05-18T04:49:43.386Z,22.75
2019-05-18T04:52:12.432Z,22.62
2019-05-18T04:54:41.492Z,22.73
2019-05-18T04:57:10.885Z,22.98
2019-05-18T04:59:40.191Z,22.67
2019-05-18T05:02:09.236Z,23.18
2019-05-18T05:04:38.288Z,23.30
2019-05-18T05:07:07.272Z,23.50
2019-05-18T05:09:36.279Z,23.90
2019-05-18T05:12:05.260Z,24.30
2019-05-18T05:14:34.316Z,23.92
2019-05-18T05:17:03.308Z,24.50
2019-05-18T05:19:32.280Z,24.80
2019-05-18T05:22:01.290Z,24.90
2019-05-18T05:24:30.335Z,25.55
2019-05-18T05:26:59.306Z,24.12
2019-05-18T05:29:28.372Z,24.47
2019-05-18T05:31:57.335Z,25.55
2019-05-18T05:34:26.632Z,26.62
2019-05-18T05:36:55.606Z,25.52
2019-05-18T05:39:24.571Z,25.80
2019-05-18T05:41:53.552Z,25.82
2019-05-18T05:44:22.810Z,26.35
2019-05-18T05:46:51.887Z,27.73
2019-05-18T05:49:20.848Z,28.07
2019-05-18T05:51:49.812Z,28.92
2019-05-18T05:54:18.800Z,29.27
2019-05-18T05:56:47.930Z,29.18
2019-05-18T05:59:16.989Z,29.92
2019-05-18T06:01:45.966Z,30.90
2019-05-18T06:04:14.946Z,30.62
2019-05-18T06:06:44.292Z,31.33
2019-05-18T06:09:13.451Z,32.08
2019-05-18T06:11:42.854Z,31.75
2019-05-18T06:14:11.853Z,31.48
2019-05-18T06:16:40.832Z,31.33
2019-05-18T06:19:09.907Z,33.15
2019-05-18T06:21:38.954Z,35.85
2019-05-18T06:24:08.041Z,35.88
2019-05-18T06:26:37.366Z,37.25
2019-05-18T06:29:06.345Z,36.95
2019-05-18T06:31:35.422Z,36.23
2019-05-18T06:34:04.515Z,36.10
2019-05-18T06:36:33.950Z,38.25
2019-05-18T06:39:04.860Z,38.85
2019-05-18T06:41:33.846Z,38.85
2019-05-18T06:44:03.454Z,42.55
2019-05-18T06:46:32.497Z,41.08
2019-05-18T06:49:01.570Z,40.12
2019-05-18T06:51:30.674Z,39.55
2019-05-18T06:53:59.633Z,41.00
2019-05-18T06:56:29.365Z,42.53
2019-05-18T06:59:00.140Z,43.17
2019-05-18T07:01:29.187Z,42.78
2019-05-18T07:03:58.517Z,43.13
2019-05-18T07:06:27.628Z,43.45
2019-05-18T07:08:56.635Z,42.48
2019-05-18T07:11:25.679Z,43.65
2019-05-18T07:13:54.687Z,42.45
2019-05-18T07:16:23.664Z,42.40
2019-05-18T07:18:53.019Z,43.17
2019-05-18T07:21:22.777Z,45.08
2019-05-18T07:23:51.828Z,44.67
2019-05-18T07:26:20.846Z,45.47
2019-05-18T07:28:49.882Z,44.48
2019-05-18T07:31:19.222Z,44.97
2019-05-18T07:33:48.304Z,42.90
2019-05-18T07:36:17.329Z,42.88
2019-05-18T07:38:46.414Z,43.05
2019-05-18T07:41:15.378Z,43.42
2019-05-18T07:43:44.410Z,43.02
2019-05-18T07:46:13.408Z,42.80
2019-05-18T07:48:42.444Z,43.68
2019-05-18T07:51:11.446Z,42.53
2019-05-18T07:53:40.424Z,44.18
2019-05-18T07:56:09.405Z,43.30
2019-05-18T07:58:38.479Z,45.43
2019-05-18T08:01:07.514Z,45.20
2019-05-18T08:03:36.588Z,45.03
2019-05-18T08:06:06.561Z,46.10
2019-05-18T08:08:35.525Z,44.83
2019-05-18T08:11:04.587Z,46.30
2019-05-18T08:13:33.647Z,45.35
2019-05-18T08:16:02.694Z,49.23
2019-05-18T08:18:31.699Z,45.95
2019-05-18T08:21:00.731Z,43.75
2019-05-18T08:23:29.800Z,47.27
2019-05-18T08:25:58.774Z,45.05
2019-05-18T08:28:27.738Z,42.85
2019-05-18T08:30:56.736Z,45.20
2019-05-18T08:33:25.796Z,44.73
2019-05-18T08:35:54.796Z,42.93
2019-05-18T08:38:23.769Z,43.38
2019-05-18T08:40:52.791Z,42.83
2019-05-18T08:43:21.847Z,43.48
2019-05-18T08:45:50.931Z,41.95
2019-05-18T08:48:19.971Z,43.08
2019-05-18T08:50:49.091Z,44.90
2019-05-18T08:53:18.141Z,43.80
2019-05-18T08:55:47.116Z,46.18
2019-05-18T08:58:16.132Z,47.27
2019-05-18T09:00:45.195Z,43.85
2019-05-18T09:03:14.248Z,43.15
2019-05-18T09:05:43.303Z,43.73
2019-05-18T09:08:12.361Z,43.10
2019-05-18T09:10:41.394Z,44.00
2019-05-18T09:13:10.419Z,43.98
2019-05-18T09:15:39.460Z,42.70
2019-05-18T09:18:08.424Z,40.17
2019-05-18T09:20:37.431Z,40.85
2019-05-18T09:23:06.743Z,42.30
2019-05-18T09:25:35.823Z,41.83
2019-05-18T09:28:04.939Z,41.42
2019-05-18T09:30:34.063Z,41.63
2019-05-18T09:33:03.114Z,41.23
2019-05-18T09:35:32.192Z,40.30
2019-05-18T09:38:01.202Z,40.63
2019-05-18T09:40:30.161Z,40.58
2019-05-18T09:42:59.265Z,38.38
2019-05-18T09:45:28.388Z,39.42
2019-05-18T09:47:57.359Z,38.38
2019-05-18T09:50:26.452Z,40.12
2019-05-18T09:52:55.495Z,41.48
2019-05-18T09:55:24.460Z,41.92
2019-05-18T09:57:53.790Z,41.37
2019-05-18T10:00:23.931Z,41.30
2019-05-18T10:02:53.102Z,39.58
2019-05-18T10:05:22.198Z,39.60
2019-05-18T10:07:51.293Z,40.08
2019-05-18T10:10:20.820Z,38.25
2019-05-18T10:12:51.506Z,41.15
2019-05-18T10:15:20.754Z,40.80
2019-05-18T10:17:49.806Z,39.42
2019-05-18T10:20:19.786Z,37.63
2019-05-18T10:22:59.176Z,37.33
2019-05-18T10:25:20.325Z,38.05
2019-05-18T10:27:49.344Z,37.15
2019-05-18T10:30:20.131Z,37.33
2019-05-18T10:32:49.158Z,36.58
2019-05-18T10:35:18.219Z,36.83
2019-05-18T10:37:47.182Z,35.60
2019-05-18T10:40:17.102Z,35.60
2019-05-18T10:42:46.071Z,36.00
2019-05-18T10:45:15.213Z,36.50
2019-05-18T10:47:44.253Z,35.15
2019-05-18T10:50:13.404Z,34.55
2019-05-18T10:52:42.486Z,33.78
2019-05-18T10:55:12.490Z,33.83
2019-05-18T10:57:41.539Z,34.78
2019-05-18T11:00:12.163Z,34.73
2019-05-18T11:02:41.182Z,32.75
2019-05-18T11:05:10.770Z,32.70
2019-05-18T11:07:41.575Z,32.15
2019-05-18T11:10:11.360Z,32.17
2019-05-18T11:12:40.491Z,31.62
2019-05-18T11:15:10.687Z,33.65
2019-05-18T11:17:39.792Z,30.23
2019-05-18T11:20:11.603Z,31.77
2019-05-18T11:22:40.793Z,29.63
2019-05-18T11:25:10.945Z,31.93
2019-05-18T11:27:40.025Z,32.23
2019-05-18T11:30:10.657Z,31.35
2019-05-18T11:32:39.831Z,30.62
2019-05-18T11:35:11.833Z,29.18
2019-05-18T11:37:40.885Z,29.77
2019-05-18T11:40:12.255Z,29.60
2019-05-18T11:42:41.270Z,29.57
2019-05-18T11:45:12.673Z,27.60
2019-05-18T11:47:41.725Z,27.02
2019-05-18T11:50:11.951Z,30.50
2019-05-18T11:52:41.152Z,27.75
2019-05-18T11:55:10.538Z,27.82
2019-05-18T11:57:39.583Z,26.60
2019-05-18T12:00:10.996Z,24.55
2019-05-18T12:02:40.042Z,22.50
2019-05-18T12:05:09.664Z,16.85
2019-05-18T12:07:38.776Z,16.67
2019-05-18T12:10:09.347Z,15.48
2019-05-18T12:12:38.578Z,17.75
2019-05-18T12:15:08.843Z,18.32
2019-05-18T12:17:38.107Z,20.95
2019-05-18T12:20:10.290Z,18.23
2019-05-18T12:22:39.716Z,16.52
2019-05-18T12:25:09.370Z,14.98
2019-05-18T12:27:38.570Z,13.10
2019-05-18T12:30:09.611Z,14.98
2019-05-18T12:32:38.713Z,14.38
2019-05-18T12:35:09.124Z,13.50
2019-05-18T12:37:38.111Z,13.58
2019-05-18T12:40:08.902Z,16.25
2019-05-18T12:42:38.428Z,12.75
2019-05-18T12:45:09.749Z,13.65
2019-05-18T12:47:39.189Z,12.20
2019-05-18T12:50:10.206Z,8.33
2019-05-18T12:52:39.174Z,9.85
2019-05-18T12:55:09.151Z,11.57
2019-05-18T12:57:38.288Z,10.28
2019-05-18T13:00:12.948Z,8.30
2019-05-18T13:02:41.977Z,8.00
2019-05-18T13:05:12.086Z,8.13
2019-05-18T13:07:41.058Z,8.65
2019-05-18T13:10:11.352Z,8.20
2019-05-18T13:12:40.695Z,8.63
2019-05-18T13:15:11.274Z,8.28
2019-05-18T13:17:40.303Z,8.25
2019-05-18T13:20:11.691Z,8.33
2019-05-18T13:22:40.729Z,8.78
2019-05-18T13:25:11.861Z,7.70
2019-05-18T13:27:40.971Z,9.40
2019-05-18T13:30:11.979Z,9.33
2019-05-18T13:32:41.077Z,8.78
2019-05-18T13:35:11.819Z,9.43
2019-05-18T13:37:41.145Z,9.47
2019-05-18T13:40:10.828Z,9.33
2019-05-18T13:42:39.797Z,8.65
2019-05-18T13:45:09.894Z,7.37
2019-05-18T13:47:39.839Z,8.30
2019-05-18T13:50:09.141Z,7.92
2019-05-18T13:52:38.218Z,8.80
2019-05-18T13:55:07.518Z,9.70
2019-05-18T13:57:37.057Z,9.38
2019-05-18T14:00:07.229Z,8.08
2019-05-18T14:02:36.408Z,8.63
2019-05-18T14:05:06.800Z,8.55
2019-05-18T14:07:35.777Z,10.45
2019-05-18T14:10:12.479Z,8.85
2019-05-18T14:12:41.173Z,9.00
2019-05-18T14:15:11.983Z,9.25
2019-05-18T14:17:41.027Z,8.75
2019-05-18T14:20:10.792Z,8.38
2019-05-18T14:22:39.802Z,8.98
2019-05-18T14:25:18.802Z,9.70
2019-05-18T14:27:40.767Z,8.75
2019-05-18T14:30:10.092Z,8.43
2019-05-18T14:32:39.373Z,9.10
2019-05-18T14:35:09.012Z,8.83
2019-05-18T14:37:37.964Z,9.63
2019-05-18T14:40:08.183Z,9.28
2019-05-18T14:42:37.316Z,9.35
2019-05-18T14:45:08.772Z,9.10
2019-05-18T14:47:37.771Z,9.05
2019-05-18T14:50:09.243Z,8.73
2019-05-18T14:52:38.268Z,7.67
2019-05-18T14:55:07.629Z,7.85
2019-05-18T14:57:36.729Z,7.47
2019-05-18T15:00:08.050Z,9.03
2019-05-18T15:02:37.034Z,8.43
2019-05-18T15:05:09.179Z,7.37
2019-05-18T15:07:38.186Z,7.33
2019-05-18T15:10:08.285Z,7.33
2019-05-18T15:12:37.438Z,8.25
2019-05-18T15:15:08.123Z,7.92
2019-05-18T15:17:37.169Z,7.33
2019-05-18T15:20:09.166Z,7.90
2019-05-18T15:22:38.256Z,8.00
2019-05-18T15:25:07.597Z,7.65
2019-05-18T15:27:36.646Z,8.10
2019-05-18T15:30:07.632Z,8.10
2019-05-18T15:32:36.762Z,6.30
2019-05-18T15:35:09.575Z,5.92
2019-05-18T15:37:39.296Z,6.10
2019-05-18T15:40:08.791Z,6.60
2019-05-18T15:42:37.767Z,7.50
2019-05-18T15:45:10.181Z,6.83
2019-05-18T15:47:39.201Z,6.67
2019-05-18T15:50:08.714Z,8.65
2019-05-18T15:52:37.765Z,6.92
2019-05-18T15:55:08.560Z,6.47
2019-05-18T15:57:37.758Z,9.53
2019-05-18T16:00:08.144Z,6.87
2019-05-18T16:02:37.196Z,6.62
2019-05-18T16:05:07.289Z,7.10
2019-05-18T16:07:36.498Z,8.15
2019-05-18T16:10:06.261Z,6.78
2019-05-18T16:12:35.290Z,6.67
2019-05-18T16:15:06.742Z,9.08
2019-05-18T16:17:39.580Z,6.58
2019-05-18T16:20:09.743Z,8.83
2019-05-18T16:22:38.796Z,6.62
2019-05-18T16:25:08.828Z,6.95
2019-05-18T16:27:37.886Z,6.60
2019-05-18T16:30:08.556Z,6.10
2019-05-18T16:32:37.533Z,6.42
2019-05-18T16:35:09.444Z,6.53
2019-05-18T16:37:38.475Z,5.90
2019-05-18T16:40:08.771Z,6.15
2019-05-18T16:42:37.824Z,6.40
2019-05-18T16:45:08.568Z,6.10
2019-05-18T16:47:37.626Z,6.12
2019-05-18T16:50:08.263Z,6.30
2019-05-18T16:52:37.410Z,6.67
2019-05-18T16:55:08.075Z,6.05
2019-05-18T16:57:37.171Z,7.00
2019-05-18T17:00:11.327Z,8.50
2019-05-18T17:02:40.461Z,9.53
2019-05-18T17:05:10.264Z,11.10
2019-05-18T17:07:39.266Z,11.65
2019-05-18T17:10:08.754Z,9.98
2019-05-18T17:12:37.899Z,12.10
2019-05-18T17:15:09.051Z,12.95
2019-05-18T17:17:38.169Z,13.15
2019-05-18T17:20:08.195Z,14.10
2019-05-18T17:22:37.228Z,14.55
2019-05-18T17:25:06.666Z,14.73
2019-05-18T17:27:35.713Z,15.38
2019-05-18T17:30:07.029Z,15.63
2019-05-18T17:32:36.074Z,16.62
2019-05-18T17:35:07.035Z,16.95
2019-05-18T17:37:36.093Z,17.82
2019-05-18T17:40:07.069Z,18.82
2019-05-18T17:42:36.228Z,18.98
2019-05-18T17:45:09.277Z,18.45
2019-05-18T17:47:38.670Z,19.50
2019-05-18T17:50:10.342Z,18.92
2019-05-18T17:52:39.737Z,18.92
2019-05-18T17:55:10.351Z,20.00
2019-05-18T17:57:39.780Z,21.37
2019-05-18T18:00:10.617Z,19.57
2019-05-18T18:02:40.127Z,20.45
2019-05-18T18:05:09.244Z,20.37
2019-05-18T18:07:38.375Z,20.15
2019-05-18T18:10:07.967Z,20.95
2019-05-18T18:12:37.326Z,20.32
2019-05-18T18:15:07.603Z,22.25
2019-05-18T18:17:36.585Z,21.25
2019-05-18T18:20:06.732Z,20.80
2019-05-18T18:22:35.769Z,21.97
2019-05-18T18:25:06.187Z,21.97
2019-05-18T18:27:35.223Z,24.18
2019-05-18T18:30:07.824Z,24.27
2019-05-18T18:32:36.877Z,24.87
2019-05-18T18:35:06.800Z,25.15
2019-05-18T18:37:35.875Z,24.98
2019-05-18T18:40:06.191Z,22.67
2019-05-18T18:42:35.511Z,23.35
2019-05-18T18:45:06.949Z,24.18
2019-05-18T18:47:35.992Z,23.30
2019-05-18T18:50:07.131Z,24.25
2019-05-18T18:52:36.244Z,24.72
2019-05-18T18:55:07.537Z,25.77
2019-05-18T18:57:41.035Z,23.57
2019-05-18T19:00:08.244Z,24.10
2019-05-18T19:02:37.267Z,24.63
2019-05-18T19:05:07.189Z,24.37
2019-05-18T19:07:36.270Z,26.62
2019-05-18T19:10:07.035Z,25.97
2019-05-18T19:12:36.627Z,24.80
2019-05-18T19:15:10.562Z,26.23
2019-05-18T19:17:39.603Z,27.22
2019-05-18T19:20:09.081Z,26.52
2019-05-18T19:22:38.329Z,26.12
2019-05-18T19:25:07.566Z,25.68
2019-05-18T19:27:36.650Z,25.32
2019-05-18T19:30:10.442Z,24.63
2019-05-18T19:32:39.446Z,24.72
2019-05-18T19:35:08.870Z,25.02
2019-05-18T19:37:37.912Z,25.35
2019-05-18T19:40:07.851Z,25.60
2019-05-18T19:42:36.827Z,26.40
2019-05-18T19:45:09.469Z,26.90
2019-05-18T19:47:38.588Z,27.77
2019-05-18T19:50:08.974Z,28.20
2019-05-18T19:52:38.038Z,28.77
2019-05-18T19:55:07.676Z,26.20
2019-05-18T19:57:36.978Z,28.15
2019-05-18T20:00:07.111Z,28.95
2019-05-18T20:02:36.155Z,27.13
2019-05-18T20:05:09.613Z,27.67
2019-05-18T20:07:38.906Z,27.95
2019-05-18T20:10:09.241Z,28.83
2019-05-18T20:12:38.349Z,29.20
2019-05-18T20:15:09.631Z,28.50
2019-05-18T20:17:38.606Z,30.60
2019-05-18T20:20:10.190Z,39.35
2019-05-18T20:22:39.517Z,29.95
2019-05-18T20:25:09.767Z,29.98
2019-05-18T20:27:39.159Z,30.23
2019-05-18T20:30:10.235Z,28.95
2019-05-18T20:32:39.520Z,29.67
2019-05-18T20:35:08.721Z,29.35
2019-05-18T20:37:37.707Z,29.10
2019-05-18T20:40:07.499Z,27.75
2019-05-18T20:42:37.682Z,29.67
2019-05-18T20:45:07.788Z,30.02
2019-05-18T20:47:36.900Z,32.03
2019-05-18T20:50:07.027Z,28.73
2019-05-18T20:52:37.166Z,29.32
2019-05-18T20:55:06.898Z,29.30
2019-05-18T20:57:35.954Z,29.07
2019-05-18T21:00:06.645Z,27.98
2019-05-18T21:02:35.685Z,29.37
2019-05-18T21:05:05.833Z,30.17
2019-05-18T21:07:34.960Z,30.48
2019-05-18T21:10:07.941Z,30.70
2019-05-18T21:12:36.982Z,29.57
2019-05-18T21:15:08.124Z,28.70
2019-05-18T21:17:37.209Z,28.73
2019-05-18T21:20:07.194Z,28.32
2019-05-18T21:22:36.250Z,28.47
2019-05-18T21:25:06.032Z,26.87
2019-05-18T21:27:35.142Z,30.02
2019-05-18T21:30:06.698Z,29.67
2019-05-18T21:32:35.740Z,35.25
2019-05-18T21:35:07.353Z,36.73
2019-05-18T21:37:36.386Z,36.80
2019-05-18T21:40:06.637Z,35.58
2019-05-18T21:42:35.677Z,34.45
2019-05-18T21:45:06.411Z,33.40
2019-05-18T21:47:35.497Z,35.38
2019-05-18T21:50:06.580Z,36.00
2019-05-18T21:52:35.568Z,37.55
2019-05-18T21:55:07.246Z,43.42
2019-05-18T21:57:36.253Z,43.63
2019-05-18T22:00:06.326Z,43.55
2019-05-18T22:02:35.862Z,43.42
2019-05-18T22:05:05.563Z,45.20
2019-05-18T22:07:35.101Z,44.33
2019-05-18T22:10:07.480Z,47.30
2019-05-18T22:12:36.467Z,46.40
2019-05-18T22:15:07.414Z,45.45
2019-05-18T22:17:38.164Z,45.45
2019-05-18T22:20:07.531Z,46.80
2019-05-18T22:22:36.575Z,49.55
2019-05-18T22:25:05.688Z,48.78
2019-05-18T22:27:34.670Z,47.73
2019-05-18T22:30:04.695Z,48.70
2019-05-18T22:32:33.673Z,50.58
2019-05-18T22:35:02.633Z,50.35
2019-05-18T22:37:32.031Z,48.75
2019-05-18T22:40:01.007Z,50.55
2019-05-18T22:42:29.975Z,50.38
2019-05-18T22:44:58.948Z,51.83
2019-05-18T22:47:27.917Z,53.40
2019-05-18T22:49:56.908Z,55.17
2019-05-18T22:52:25.865Z,55.83
2019-05-18T22:54:54.847Z,55.30
2019-05-18T22:57:23.842Z,56.65
2019-05-18T22:59:52.881Z,56.42
2019-05-18T23:02:21.868Z,57.75
2019-05-18T23:04:50.870Z,56.15
2019-05-18T23:07:19.937Z,56.58
2019-05-18T23:09:48.982Z,58.25
2019-05-18T23:12:18.371Z,58.17
2019-05-18T23:14:47.481Z,58.52
2019-05-18T23:17:16.454Z,58.05
2019-05-18T23:19:45.433Z,57.65
2019-05-18T23:22:14.408Z,56.98
2019-05-18T23:24:43.450Z,58.00
2019-05-18T23:27:12.419Z,57.53
2019-05-18T23:29:41.518Z,57.98
2019-05-18T23:32:10.857Z,57.17
2019-05-18T23:34:40.229Z,57.33
2019-05-18T23:37:09.226Z,56.73
2019-05-18T23:39:38.275Z,57.15
2019-05-18T23:42:07.286Z,57.65
2019-05-18T23:44:36.342Z,57.17
2019-05-18T23:47:05.306Z,59.40
2019-05-18T23:49:34.718Z,59.00
2019-05-18T23:52:03.768Z,58.80
2019-05-18T23:54:32.775Z,60.12
2019-05-18T23:57:01.731Z,60.85
2019-05-18T23:59:30.708Z,57.60
